Time;durP1;ratioP1;P1;durP2;ratioP2;P2;SDS_P1;SDS_P2;PMS_P1;PMS_P2;Temp;Humidity;BMP_temperature;BMP_pressure;BME280_temperature;BME280_humidity;BME280_pressure;Samples;Min_cycle;Max_cycle;Signal;HPM_P1;HPM_P2
2023/08/23 00:01:27;;;;;;;3.67;1.98;;;33.00;32.90;;;;;;7681472;23;20126;-77
2023/08/23 00:04:34;;;;;;;4.90;2.70;;;33.00;33.10;;;;;;7681001;23;20103;-78
2023/08/23 00:07:35;;;;;;;4.05;2.38;;;33.00;33.30;;;;;;7681485;23;20004;-76
2023/08/23 00:10:36;;;;;;;5.72;2.63;;;32.90;33.50;;;;;;7681244;23;20022;-76
2023/08/23 00:13:36;;;;;;;5.10;2.08;;;32.90;33.70;;;;;;7681584;23;20009;-77
2023/08/23 00:16:39;;;;;;;3.22;2.25;;;32.80;33.80;;;;;;7708202;23;20405;-77
2023/08/23 00:19:40;;;;;;;3.22;2.42;;;32.80;33.80;;;;;;7708558;23;20005;-75
2023/08/23 00:22:41;;;;;;;7.05;2.63;;;32.70;34.00;;;;;;7707700;23;20019;-75
2023/08/23 00:25:41;;;;;;;7.05;2.58;;;32.70;34.20;;;;;;7708077;23;20005;-76
2023/08/23 00:28:42;;;;;;;8.32;2.70;;;32.60;34.20;;;;;;7656520;23;20031;-76
2023/08/23 00:31:43;;;;;;;6.78;2.33;;;32.60;34.40;;;;;;7680743;23;20063;-76
2023/08/23 00:34:45;;;;;;;6.43;2.45;;;32.50;34.60;;;;;;7680781;23;20009;-76
2023/08/23 00:37:46;;;;;;;2.95;2.67;;;32.50;34.80;;;;;;7656182;23;20012;-78
2023/08/23 00:40:46;;;;;;;3.60;2.60;;;32.40;35.00;;;;;;7681343;23;20020;-77
2023/08/23 00:43:48;;;;;;;4.82;2.45;;;32.40;35.20;;;;;;7680561;23;20016;-76
2023/08/23 00:46:49;;;;;;;4.72;2.75;;;32.30;35.30;;;;;;7656242;23;20013;-76
2023/08/23 00:49:51;;;;;;;4.82;2.67;;;32.30;35.50;;;;;;7715353;23;20032;-77
2023/08/23 00:52:52;;;;;;;2.63;2.42;;;32.30;35.70;;;;;;7695708;23;20024;-78
2023/08/23 00:55:59;;;;;;;5.18;2.83;;;32.30;36.10;;;;;;7686886;23;20076;-76
2023/08/23 00:59:07;;;;;;;3.63;2.45;;;32.30;36.60;;;;;;7658982;23;20020;-76
2023/08/23 01:02:08;;;;;;;8.02;2.95;;;32.20;36.80;;;;;;7707241;23;20062;-76
2023/08/23 01:05:10;;;;;;;6.07;2.90;;;32.20;36.90;;;;;;7680611;23;20361;-77
2023/08/23 01:08:25;;;;;;;5.53;3.60;;;32.10;36.70;;;;;;7680399;23;20114;-76
2023/08/23 01:12:20;;;;;;;12.85;4.72;;;32.10;37.20;;;;;;7655614;23;20011;-76
2023/08/23 01:15:23;;;;;;;5.72;3.40;;;32.00;36.50;;;;;;7472613;23;20054;-76
2023/08/23 01:18:27;;;;;;;10.70;5.00;;;32.00;36.40;;;;;;7496534;23;20066;-76
2023/08/23 01:21:37;;;;;;;11.48;5.10;;;31.90;36.40;;;;;;7496715;23;20014;-76
2023/08/23 01:24:39;;;;;;;10.50;4.28;;;32.00;36.40;;;;;;7497185;23;20022;-77
2023/08/23 01:27:40;;;;;;;6.88;3.92;;;31.90;36.30;;;;;;7496527;23;20060;-76
2023/08/23 01:30:42;;;;;;;5.22;3.13;;;31.90;36.40;;;;;;7519842;23;20007;-75
2023/08/23 01:33:54;;;;;;;7.55;3.63;;;31.90;36.20;;;;;;7495920;23;20015;-76
2023/08/23 01:36:56;;;;;;;10.38;3.38;;;31.90;36.40;;;;;;7495550;23;20042;-77
2023/08/23 01:40:00;;;;;;;5.72;3.33;;;31.90;36.50;;;;;;7471637;23;20046;-75
2023/08/23 01:43:01;;;;;;;5.90;3.10;;;31.80;36.40;;;;;;7519558;23;20158;-76
2023/08/23 01:46:02;;;;;;;5.43;3.10;;;31.80;36.40;;;;;;7519646;23;20165;-76
2023/08/23 01:49:03;;;;;;;4.20;3.08;;;31.80;36.80;;;;;;7608552;23;20020;-77
2023/08/23 01:52:04;;;;;;;5.32;2.53;;;31.80;37.20;;;;;;7679961;23;20009;-76
2023/08/23 01:55:06;;;;;;;7.43;2.97;;;31.70;37.60;;;;;;7707427;23;20031;-77
2023/08/23 01:58:07;;;;;;;4.38;3.25;;;31.70;38.20;;;;;;7680057;23;20115;-76
2023/08/23 02:01:08;;;;;;;13.60;3.80;;;31.60;38.70;;;;;;7654941;23;20016;-76
2023/08/23 02:04:08;;;;;;;5.40;2.50;;;31.60;39.10;;;;;;7655029;23;20043;-77
2023/08/23 02:07:10;;;;;;;7.30;2.70;;;31.60;39.10;;;;;;7680198;23;20042;-78
2023/08/23 02:10:10;;;;;;;7.63;3.22;;;31.60;38.70;;;;;;7655358;23;20014;-75
2023/08/23 02:13:11;;;;;;;5.95;3.22;;;31.50;38.40;;;;;;7707148;23;20008;-76
2023/08/23 02:16:12;;;;;;;8.98;3.03;;;31.40;38.20;;;;;;7655527;23;20756;-77
2023/08/23 02:19:13;;;;;;;5.25;2.70;;;31.40;38.10;;;;;;7707727;23;20091;-77
2023/08/23 02:22:14;;;;;;;5.80;2.75;;;31.30;38.20;;;;;;7707192;23;20386;-76
2023/08/23 02:25:15;;;;;;;5.13;2.70;;;31.30;38.20;;;;;;7680202;23;20111;-78
2023/08/23 02:28:16;;;;;;;5.88;2.55;;;31.20;38.20;;;;;;7707166;23;20004;-76
2023/08/23 02:31:17;;;;;;;9.45;3.30;;;31.20;38.30;;;;;;7680139;23;20000;-76
2023/08/23 02:34:19;;;;;;;4.38;2.83;;;31.20;38.30;;;;;;7680179;23;20091;-76
2023/08/23 02:37:21;;;;;;;5.78;2.90;;;31.10;38.30;;;;;;7707113;23;20008;-75
2023/08/23 02:40:22;;;;;;;6.72;2.90;;;31.10;38.30;;;;;;7655275;23;20394;-76
2023/08/23 02:43:23;;;;;;;5.28;2.85;;;31.10;38.40;;;;;;7680276;23;20024;-76
2023/08/23 02:46:24;;;;;;;3.22;2.78;;;31.10;38.30;;;;;;7679852;23;20017;-77
2023/08/23 02:49:26;;;;;;;3.53;2.70;;;31.10;38.40;;;;;;7706450;23;20001;-76
2023/08/23 02:52:27;;;;;;;5.30;2.80;;;31.10;38.40;;;;;;7679497;23;20099;-77
2023/08/23 02:55:28;;;;;;;5.45;2.78;;;31.10;38.60;;;;;;7655062;23;20008;-77
2023/08/23 02:58:30;;;;;;;7.03;3.22;;;31.00;39.20;;;;;;7680367;23;20016;-76
2023/08/23 03:01:32;;;;;;;5.43;3.13;;;31.00;39.60;;;;;;7679343;23;20004;-76
2023/08/23 03:04:32;;;;;;;4.72;3.00;;;31.00;39.50;;;;;;7654506;23;20024;-76
2023/08/23 03:07:34;;;;;;;7.57;2.83;;;31.00;39.10;;;;;;7706726;23;20012;-77
2023/08/23 03:10:34;;;;;;;5.68;3.25;;;30.90;39.00;;;;;;7707467;23;20016;-75
2023/08/23 03:13:35;;;;;;;12.13;2.83;;;30.80;38.90;;;;;;7681603;23;20449;-76
2023/08/23 03:16:36;;;;;;;6.22;3.20;;;30.80;39.00;;;;;;7682943;23;20062;-77
2023/08/23 03:19:38;;;;;;;3.65;2.47;;;30.70;39.10;;;;;;7657715;23;20514;-76
2023/08/23 03:22:39;;;;;;;5.68;2.80;;;30.60;39.20;;;;;;7657760;23;20017;-77
2023/08/23 03:25:40;;;;;;;5.32;2.97;;;30.50;39.30;;;;;;7682400;23;20111;-76
2023/08/23 03:28:41;;;;;;;3.65;2.53;;;30.40;39.40;;;;;;7682455;23;20166;-76
2023/08/23 03:31:44;;;;;;;11.15;2.83;;;30.40;39.50;;;;;;7709210;23;20032;-77
2023/08/23 03:34:49;;;;;;;10.88;2.88;;;30.30;39.60;;;;;;7657858;23;20008;-76
2023/08/23 03:37:50;;;;;;;6.70;2.75;;;30.30;39.70;;;;;;7657006;23;20008;-78
2023/08/23 03:40:52;;;;;;;3.38;2.47;;;30.30;39.70;;;;;;7681566;23;20019;-77
2023/08/23 03:43:53;;;;;;;6.35;3.20;;;30.30;39.70;;;;;;7681764;23;20472;-75
2023/08/23 03:46:56;;;;;;;7.00;3.17;;;30.30;39.70;;;;;;7681454;23;20016;-76
2023/08/23 03:49:57;;;;;;;7.57;2.90;;;30.30;39.70;;;;;;7681552;23;20005;-76
2023/08/23 03:52:58;;;;;;;9.27;3.10;;;30.30;39.70;;;;;;7680997;23;20023;-77
2023/08/23 03:55:59;;;;;;;9.43;3.03;;;30.30;39.80;;;;;;7656974;23;20047;-77
2023/08/23 03:59:00;;;;;;;8.65;2.97;;;30.30;40.00;;;;;;7681944;23;20019;-77
2023/08/23 04:02:01;;;;;;;7.38;3.25;;;30.30;40.10;;;;;;7681479;23;20306;-76
2023/08/23 04:05:05;;;;;;;5.18;3.22;;;30.30;40.30;;;;;;7656181;23;20095;-76
2023/08/23 04:08:06;;;;;;;6.82;2.67;;;30.30;40.50;;;;;;7681968;23;20005;-78
2023/08/23 04:11:07;;;;;;;5.00;2.75;;;30.20;41.00;;;;;;7682183;23;20051;-77
2023/08/23 04:14:08;;;;;;;4.57;2.72;;;30.20;41.40;;;;;;7681050;23;20067;-74
2023/08/23 04:17:09;;;;;;;4.40;2.97;;;30.60;42.00;;;;;;7681346;23;20016;-76
2023/08/23 04:20:11;;;;;;;16.08;2.65;;;30.10;41.90;;;;;;7656614;23;20060;-76
2023/08/23 04:23:11;;;;;;;13.00;3.33;;;30.10;41.70;;;;;;7681167;23;20781;-75
2023/08/23 04:26:13;;;;;;;8.77;3.13;;;30.10;41.50;;;;;;7661601;23;20070;-76
2023/08/23 04:29:14;;;;;;;12.55;3.78;;;30.10;41.30;;;;;;7694825;23;20449;-76
2023/08/23 04:32:16;;;;;;;5.32;3.20;;;30.10;41.20;;;;;;7686539;23;20004;-75
2023/08/23 04:35:17;;;;;;;13.00;3.13;;;30.10;41.20;;;;;;7684365;23;20069;-76
2023/08/23 04:38:18;;;;;;;7.45;3.00;;;30.10;41.30;;;;;;7681725;23;20030;-74
2023/08/23 04:41:19;;;;;;;6.57;3.28;;;30.10;41.30;;;;;;7708329;23;20008;-75
2023/08/23 04:44:20;;;;;;;5.30;3.17;;;30.10;41.30;;;;;;7656751;23;20098;-76
2023/08/23 04:47:21;;;;;;;5.90;3.83;;;30.00;41.30;;;;;;7681426;23;20091;-76
2023/08/23 04:50:22;;;;;;;12.95;3.45;;;30.00;42.00;;;;;;7655921;23;20009;-76
2023/08/23 04:53:24;;;;;;;10.98;3.75;;;30.00;41.40;;;;;;7707198;23;20016;-75
2023/08/23 04:56:25;;;;;;;6.13;2.78;;;29.90;41.40;;;;;;7708218;23;20110;-76
2023/08/23 04:59:26;;;;;;;6.70;3.17;;;29.90;41.50;;;;;;7680990;23;20111;-76
2023/08/23 05:02:36;;;;;;;5.95;3.35;;;29.90;41.80;;;;;;7681106;23;20839;-76
2023/08/23 05:05:38;;;;;;;4.60;3.25;;;29.90;41.70;;;;;;7656107;23;20371;-76
2023/08/23 05:08:39;;;;;;;6.47;3.38;;;29.90;41.70;;;;;;7656756;23;20039;-76
2023/08/23 05:11:45;;;;;;;5.60;3.90;;;29.80;42.10;;;;;;7680607;23;20091;-76
2023/08/23 05:14:47;;;;;;;4.60;2.92;;;29.80;41.60;;;;;;7681164;23;20086;-76
2023/08/23 05:17:51;;;;;;;5.97;3.45;;;29.80;41.60;;;;;;7656806;23;20059;-75
2023/08/23 05:20:54;;;;;;;8.93;3.65;;;29.80;41.70;;;;;;7680569;23;20016;-75
2023/08/23 05:23:55;;;;;;;12.45;3.67;;;29.70;41.80;;;;;;7680360;23;20013;-75
2023/08/23 05:26:56;;;;;;;7.13;3.15;;;29.70;41.80;;;;;;7680738;23;20031;-77
2023/08/23 05:29:59;;;;;;;8.73;3.67;;;29.70;41.90;;;;;;7656176;23;20015;-76
2023/08/23 05:33:00;;;;;;;5.97;3.33;;;29.70;42.00;;;;;;7656094;23;20099;-76
2023/08/23 05:36:01;;;;;;;7.30;3.45;;;29.70;42.00;;;;;;7681363;23;20076;-77
2023/08/23 05:39:04;;;;;;;6.07;3.30;;;29.70;42.00;;;;;;7657515;23;20434;-76
2023/08/23 05:42:05;;;;;;;8.13;3.30;;;29.70;42.00;;;;;;7681335;23;20017;-77
2023/08/23 05:45:09;;;;;;;7.95;3.25;;;29.70;41.90;;;;;;7680796;23;20054;-75
2023/08/23 05:48:11;;;;;;;7.63;2.95;;;29.70;41.80;;;;;;7655510;23;20035;-78
2023/08/23 05:51:13;;;;;;;5.25;3.17;;;29.70;41.70;;;;;;7680589;23;20011;-78
2023/08/23 05:54:13;;;;;;;4.93;3.70;;;29.80;41.70;;;;;;7707255;23;20009;-76
2023/08/23 05:57:14;;;;;;;7.78;3.67;;;29.80;41.60;;;;;;7681478;23;20032;-78
2023/08/23 06:00:15;;;;;;;4.60;3.40;;;29.80;41.60;;;;;;7708665;23;20004;-77
2023/08/23 06:03:19;;;;;;;8.65;3.42;;;29.80;41.50;;;;;;7707030;23;20008;-73
2023/08/23 06:06:20;;;;;;;6.45;3.50;;;29.90;42.10;;;;;;7679176;23;20486;-74
2023/08/23 06:09:21;;;;;;;6.13;3.75;;;29.90;41.50;;;;;;7680102;23;20001;-75
2023/08/23 06:12:25;;;;;;;10.60;3.70;;;29.90;41.50;;;;;;7707976;23;20047;-75
2023/08/23 06:15:26;;;;;;;8.70;3.70;;;29.90;41.60;;;;;;7707094;23;20174;-75
2023/08/23 06:18:27;;;;;;;13.65;3.38;;;30.00;42.00;;;;;;7707656;23;20441;-74
2023/08/23 06:21:28;;;;;;;5.38;3.03;;;30.00;42.50;;;;;;7680457;23;20281;-73
2023/08/23 06:24:29;;;;;;;7.93;3.35;;;30.00;42.90;;;;;;7706603;23;20023;-74
2023/08/23 06:27:30;;;;;;;6.32;3.13;;;30.00;43.00;;;;;;7707177;23;20004;-74
2023/08/23 06:30:31;;;;;;;7.88;3.70;;;30.00;43.00;;;;;;7706365;23;20023;-75
2023/08/23 06:33:32;;;;;;;14.82;4.32;;;30.00;42.70;;;;;;7706334;23;20005;-75
2023/08/23 06:36:33;;;;;;;12.93;4.00;;;30.10;42.60;;;;;;7679133;23;20062;-76
2023/08/23 06:39:33;;;;;;;6.32;3.38;;;30.10;42.40;;;;;;7706665;23;20115;-74
2023/08/23 06:42:35;;;;;;;9.75;3.78;;;30.20;42.40;;;;;;7706020;23;20721;-75
2023/08/23 06:45:35;;;;;;;9.32;3.33;;;30.20;42.40;;;;;;7679894;23;20118;-76
2023/08/23 06:48:36;;;;;;;6.07;3.25;;;30.30;42.50;;;;;;7681460;23;20012;-76
2023/08/23 06:51:38;;;;;;;7.82;3.72;;;30.40;42.60;;;;;;7681810;23;20028;-76
2023/08/23 06:54:39;;;;;;;6.97;3.08;;;30.40;42.50;;;;;;7682648;23;20171;-74
2023/08/23 06:57:40;;;;;;;5.95;3.78;;;30.50;42.30;;;;;;7682546;23;20008;-74
2023/08/23 07:00:41;;;;;;;5.25;3.20;;;30.50;42.10;;;;;;7708894;23;20004;-75
2023/08/23 07:03:44;;;;;;;9.90;3.60;;;30.70;42.20;;;;;;7683473;23;20135;-73
2023/08/23 07:06:46;;;;;;;8.48;3.47;;;30.60;42.80;;;;;;7712671;23;20012;-75
2023/08/23 07:09:50;;;;;;;4.70;3.58;;;30.70;42.10;;;;;;7716961;23;20012;-75
2023/08/23 07:12:51;;;;;;;11.07;3.85;;;30.70;41.90;;;;;;7682135;23;20382;-74
2023/08/23 07:15:52;;;;;;;6.28;3.45;;;30.80;41.80;;;;;;7681880;23;20030;-74
2023/08/23 07:18:54;;;;;;;15.10;4.10;;;30.90;41.80;;;;;;7709374;23;20033;-74
2023/08/23 07:21:57;;;;;;;9.55;3.80;;;30.90;41.80;;;;;;7681839;23;20016;-74
2023/08/23 07:24:58;;;;;;;5.03;3.78;;;31.00;41.80;;;;;;7656880;23;20016;-76
2023/08/23 07:27:59;;;;;;;8.00;3.90;;;31.10;41.80;;;;;;7708242;23;20088;-74
2023/08/23 07:31:02;;;;;;;8.43;4.40;;;31.20;41.70;;;;;;7707976;23;20004;-74
2023/08/23 07:34:03;;;;;;;7.55;3.83;;;31.30;41.60;;;;;;7708241;23;20013;-73
2023/08/23 07:37:04;;;;;;;10.90;3.78;;;31.50;41.50;;;;;;7708357;23;20479;-74
2023/08/23 07:40:06;;;;;;;9.52;3.60;;;31.60;41.10;;;;;;7709580;23;20497;-74
2023/08/23 07:43:07;;;;;;;6.25;3.53;;;31.70;40.90;;;;;;7680848;23;20012;-75
2023/08/23 07:46:08;;;;;;;6.07;3.65;;;31.80;40.70;;;;;;7708320;23;20004;-74
2023/08/23 07:49:09;;;;;;;8.70;3.55;;;31.90;40.40;;;;;;7708990;23;20005;-74
2023/08/23 07:52:10;;;;;;;7.53;3.22;;;32.00;40.20;;;;;;7681687;23;20012;-74
2023/08/23 07:55:11;;;;;;;10.43;3.55;;;32.10;39.90;;;;;;7656597;23;20341;-75
2023/08/23 07:58:14;;;;;;;5.65;3.55;;;32.30;39.70;;;;;;7708110;23;20004;-74
2023/08/23 08:01:14;;;;;;;6.50;3.40;;;32.40;39.20;;;;;;7711769;23;20036;-76
2023/08/23 08:04:15;;;;;;;6.43;3.50;;;32.40;39.10;;;;;;7715806;23;20036;-74
2023/08/23 08:07:16;;;;;;;7.63;3.75;;;32.60;39.00;;;;;;7709978;23;20001;-75
2023/08/23 08:10:18;;;;;;;9.10;3.75;;;32.70;38.60;;;;;;7683016;23;20084;-75
2023/08/23 08:13:19;;;;;;;15.48;3.90;;;32.90;38.30;;;;;;7707884;23;20401;-75
2023/08/23 08:16:20;;;;;;;7.28;3.75;;;33.10;38.10;;;;;;7680810;23;20047;-75
2023/08/23 08:19:21;;;;;;;7.97;3.60;;;33.20;37.60;;;;;;7656018;23;20071;-75
2023/08/23 08:22:21;;;;;;;10.50;3.42;;;33.40;37.40;;;;;;7707294;23;20268;-76
2023/08/23 08:25:22;;;;;;;9.00;3.70;;;33.50;37.10;;;;;;7680501;23;20009;-75
2023/08/23 08:28:24;;;;;;;9.20;3.88;;;33.60;36.50;;;;;;7707536;23;20088;-75
2023/08/23 08:31:25;;;;;;;7.07;3.85;;;33.70;36.30;;;;;;7655870;23;20016;-77
2023/08/23 08:34:27;;;;;;;6.25;3.78;;;33.80;36.20;;;;;;7707798;23;20096;-74
2023/08/23 08:37:28;;;;;;;5.97;3.47;;;33.90;36.00;;;;;;7681109;23;20022;-74
2023/08/23 08:40:29;;;;;;;10.50;3.95;;;34.10;35.90;;;;;;7656176;23;20414;-74
2023/08/23 08:43:31;;;;;;;8.18;3.80;;;34.20;35.50;;;;;;7707436;23;20337;-74
2023/08/23 08:46:32;;;;;;;9.70;3.85;;;34.40;35.00;;;;;;7655951;23;20147;-75
2023/08/23 08:49:33;;;;;;;10.95;4.15;;;34.30;34.80;;;;;;7707647;23;20090;-75
2023/08/23 08:52:36;;;;;;;4.43;3.20;;;34.30;34.60;;;;;;7707756;23;20004;-75
2023/08/23 08:55:37;;;;;;;7.68;3.53;;;34.40;34.60;;;;;;7708363;23;20063;-76
2023/08/23 08:58:39;;;;;;;4.10;3.30;;;34.50;34.40;;;;;;7707334;23;20119;-74
2023/08/23 09:01:41;;;;;;;6.60;3.70;;;34.60;34.30;;;;;;7655343;23;20017;-74
2023/08/23 09:04:46;;;;;;;7.22;3.83;;;34.60;34.10;;;;;;7708048;23;20039;-74
2023/08/23 09:07:48;;;;;;;13.15;2.97;;;34.70;33.90;;;;;;7707975;23;20001;-76
2023/08/23 09:10:50;;;;;;;5.68;4.03;;;34.80;33.60;;;;;;7707062;23;20382;-75
2023/08/23 09:13:51;;;;;;;11.32;3.97;;;34.80;33.50;;;;;;7707994;23;20004;-73
2023/08/23 09:16:52;;;;;;;14.43;3.75;;;34.90;33.40;;;;;;7709017;23;20091;-77
2023/08/23 09:19:53;;;;;;;12.10;4.03;;;34.90;33.20;;;;;;7708889;23;20008;-73
2023/08/23 09:22:55;;;;;;;10.10;4.13;;;34.90;33.10;;;;;;7660674;23;20070;-73
2023/08/23 09:25:56;;;;;;;5.90;3.55;;;35.10;33.10;;;;;;7714187;23;20008;-76
2023/08/23 09:28:57;;;;;;;6.78;4.32;;;35.20;32.80;;;;;;7681130;23;20074;-74
2023/08/23 09:31:59;;;;;;;12.27;3.83;;;35.30;32.60;;;;;;7707562;23;20009;-75
2023/08/23 09:35:15;;;;;;;5.15;3.72;;;35.20;32.40;;;;;;7681283;23;20087;-74
2023/08/23 09:38:20;;;;;;;8.07;3.50;;;35.40;32.60;;;;;;7708023;23;20096;-74
2023/08/23 09:41:22;;;;;;;7.25;4.20;;;35.50;32.70;;;;;;7707803;23;20108;-74
2023/08/23 09:44:24;;;;;;;5.80;4.05;;;35.60;32.80;;;;;;7680619;23;20013;-75
2023/08/23 09:47:28;;;;;;;7.47;3.53;;;35.70;32.90;;;;;;7706962;23;20514;-76
2023/08/23 09:50:29;;;;;;;5.93;4.00;;;35.80;33.00;;;;;;7706494;23;20051;-76
2023/08/23 09:53:35;;;;;;;7.35;4.15;;;35.70;32.90;;;;;;7680313;23;20061;-75
2023/08/23 09:56:36;;;;;;;10.25;4.18;;;35.90;32.90;;;;;;7680471;23;20084;-74
2023/08/23 09:59:37;;;;;;;11.18;3.95;;;35.90;32.70;;;;;;7707792;23;20005;-75
2023/08/23 10:02:40;;;;;;;7.80;4.03;;;36.00;32.60;;;;;;7679902;23;20572;-75
2023/08/23 10:05:43;;;;;;;6.60;4.00;;;36.10;32.60;;;;;;7706574;23;20024;-74
2023/08/23 10:08:45;;;;;;;7.05;3.40;;;35.80;32.20;;;;;;7706984;23;20027;-75
2023/08/23 10:11:47;;;;;;;5.85;3.83;;;36.30;32.40;;;;;;7706839;23;20072;-74
2023/08/23 10:14:51;;;;;;;7.35;3.58;;;36.40;32.10;;;;;;7706753;23;20275;-74
2023/08/23 10:17:52;;;;;;;6.10;3.92;;;36.40;32.00;;;;;;7655407;23;20008;-75
2023/08/23 10:20:55;;;;;;;6.57;3.40;;;36.50;31.80;;;;;;7707378;23;20129;-74
2023/08/23 10:23:56;;;;;;;7.13;3.10;;;36.60;31.70;;;;;;7709192;23;20004;-75
2023/08/23 10:27:08;;;;;;;8.98;4.00;;;36.60;31.50;;;;;;7712306;23;20012;-74
2023/08/23 10:30:10;;;;;;;9.77;3.78;;;36.70;31.50;;;;;;7686693;23;20000;-74
2023/08/23 10:33:15;;;;;;;10.02;3.60;;;36.80;31.30;;;;;;7687102;23;20011;-73
2023/08/23 10:36:30;;;;;;;6.95;3.95;;;36.80;31.80;;;;;;7711272;23;19996;-75
2023/08/23 10:39:31;;;;;;;5.22;3.80;;;36.90;31.00;;;;;;7710004;23;20074;-74
2023/08/23 10:42:33;;;;;;;9.63;3.90;;;36.90;30.70;;;;;;7708373;23;20059;-75
2023/08/23 10:45:51;;;;;;;6.15;3.75;;;37.00;30.60;;;;;;7709302;23;20020;-75
2023/08/23 10:48:52;;;;;;;;;;;37.00;30.50;;;;;;7710039;23;20090;-75
2023/08/23 10:51:54;;;;;;;6.72;3.42;;;37.20;30.30;;;;;;7681742;23;19927;-75
2023/08/23 10:54:56;;;;;;;7.97;3.08;;;37.30;30.00;;;;;;7709075;23;20476;-74
2023/08/23 10:57:57;;;;;;;9.63;3.10;;;37.60;29.70;;;;;;7709416;23;20498;-74
2023/08/23 11:00:58;;;;;;;4.80;3.20;;;38.00;29.30;;;;;;7708992;23;20012;-74
2023/08/23 11:04:01;;;;;;;6.55;3.15;;;38.40;28.70;;;;;;7708897;23;20016;-75
2023/08/23 11:07:02;;;;;;;6.35;3.33;;;38.80;28.30;;;;;;7682671;23;20015;-74
2023/08/23 11:10:04;;;;;;;3.90;2.80;;;39.20;27.80;;;;;;7708438;23;20004;-75
2023/08/23 11:13:05;;;;;;;5.30;3.00;;;39.40;27.50;;;;;;7681191;23;20024;-75
2023/08/23 11:16:06;;;;;;;3.90;2.80;;;39.80;27.20;;;;;;7709589;23;20024;-73
2023/08/23 11:19:07;;;;;;;5.40;3.20;;;40.10;26.90;;;;;;7709349;23;20102;-73
2023/08/23 11:22:08;;;;;;;6.88;3.03;;;40.30;26.60;;;;;;7681639;23;20079;-74
2023/08/23 11:25:09;;;;;;;6.40;2.95;;;40.60;26.40;;;;;;7681735;23;20012;-75
2023/08/23 11:28:12;;;;;;;4.60;2.88;;;40.80;26.30;;;;;;7682002;23;20091;-74
2023/08/23 11:31:13;;;;;;;4.97;3.00;;;41.00;26.40;;;;;;7708465;23;20028;-74
2023/08/23 11:34:14;;;;;;;6.28;3.17;;;41.20;25.60;;;;;;7708999;23;20084;-75
2023/08/23 11:37:15;;;;;;;4.40;2.97;;;41.40;25.50;;;;;;7708580;23;20016;-74
2023/08/23 11:40:16;;;;;;;8.52;2.90;;;41.80;25.30;;;;;;7712018;23;20026;-75
2023/08/23 11:43:17;;;;;;;6.97;2.42;;;42.10;25.00;;;;;;7711307;23;20092;-76
2023/08/23 11:46:19;;;;;;;6.38;2.65;;;42.50;24.40;;;;;;7683002;23;20004;-75
2023/08/23 11:49:19;;;;;;;3.17;2.88;;;42.60;23.80;;;;;;7708819;23;20075;-76
2023/08/23 11:52:20;;;;;;;5.70;2.78;;;42.50;23.80;;;;;;7708783;23;20080;-75
2023/08/23 11:55:25;;;;;;;4.18;2.67;;;42.70;24.10;;;;;;7681458;23;20222;-74
2023/08/23 11:58:27;;;;;;;7.25;2.67;;;43.10;23.90;;;;;;7681757;23;20095;-74
2023/08/23 12:01:28;;;;;;;4.28;2.58;;;43.50;23.60;;;;;;7707847;23;20469;-74
2023/08/23 12:04:29;;;;;;;3.42;2.83;;;43.80;23.30;;;;;;7707544;23;20012;-74
2023/08/23 12:07:39;;;;;;;3.40;2.70;;;44.10;23.10;;;;;;7711129;23;20058;-75
2023/08/23 12:10:43;;;;;;;5.68;2.92;;;44.40;23.00;;;;;;7719023;23;20012;-74
2023/08/23 12:13:47;;;;;;;4.82;3.13;;;44.90;22.70;;;;;;7720450;23;20015;-74
2023/08/23 12:16:52;;;;;;;7.50;3.22;;;45.10;22.40;;;;;;7673491;23;20008;-73
2023/08/23 12:19:58;;;;;;;5.20;2.75;;;45.30;22.50;;;;;;7725866;23;20012;-74
2023/08/23 12:23:01;;;;;;;3.95;2.90;;;45.40;22.10;;;;;;7666570;23;20298;-75
2023/08/23 12:26:02;;;;;;;10.13;2.70;;;45.50;22.20;;;;;;7681454;23;20011;-75
2023/08/23 12:29:03;;;;;;;7.95;3.00;;;45.70;22.30;;;;;;7708827;23;20000;-74
2023/08/23 12:32:10;;;;;;;3.53;2.65;;;46.10;22.10;;;;;;7680814;23;20095;-75
2023/08/23 12:35:11;;;;;;;4.93;2.72;;;46.60;21.70;;;;;;7707703;23;20048;-74
2023/08/23 12:38:12;;;;;;;13.07;2.63;;;47.10;21.50;;;;;;7680537;23;20100;-74
2023/08/23 12:41:13;;;;;;;4.32;2.40;;;47.50;20.90;;;;;;7707218;23;20028;-75
2023/08/23 12:44:15;;;;;;;3.47;1.98;;;47.80;20.70;;;;;;7680775;23;20016;-72
2023/08/23 12:47:16;;;;;;;2.63;2.38;;;48.20;20.30;;;;;;7707226;23;20132;-75
2023/08/23 12:50:17;;;;;;;4.22;2.13;;;48.60;20.00;;;;;;7707328;23;20650;-74
2023/08/23 12:53:18;;;;;;;10.73;2.67;;;49.00;19.50;;;;;;7706606;23;20004;-76
2023/08/23 12:56:20;;;;;;;6.03;2.28;;;49.50;19.20;;;;;;7680015;23;20047;-74
2023/08/23 12:59:21;;;;;;;5.07;2.17;;;49.80;18.80;;;;;;7706544;23;20429;-74
2023/08/23 13:02:22;;;;;;;2.78;2.10;;;50.10;18.40;;;;;;7679968;23;20092;-75
2023/08/23 13:05:22;;;;;;;2.20;2.00;;;50.20;18.20;;;;;;7680317;23;20507;-75
2023/08/23 13:08:23;;;;;;;5.40;2.00;;;50.10;18.10;;;;;;7680443;23;20121;-75
2023/08/23 13:11:24;;;;;;;4.35;1.90;;;50.20;18.00;;;;;;7706898;23;20024;-74
2023/08/23 13:14:25;;;;;;;7.30;2.47;;;50.60;17.70;;;;;;7707142;23;20012;-75
2023/08/23 13:17:26;;;;;;;2.35;1.90;;;50.70;17.60;;;;;;7680290;23;20015;-76
2023/08/23 13:20:27;;;;;;;4.28;1.77;;;51.10;17.40;;;;;;7707048;23;20016;-75
2023/08/23 13:23:28;;;;;;;4.20;2.03;;;51.30;17.20;;;;;;7706773;23;20083;-74
2023/08/23 13:26:29;;;;;;;5.45;1.80;;;51.60;17.10;;;;;;7706630;23;20000;-74
2023/08/23 13:29:31;;;;;;;4.65;1.98;;;51.60;16.90;;;;;;7706430;23;20334;-75
2023/08/23 13:32:32;;;;;;;3.47;1.70;;;51.60;16.90;;;;;;7705551;23;20039;-76
2023/08/23 13:35:33;;;;;;;2.40;1.90;;;51.70;16.80;;;;;;7678410;23;20100;-75
2023/08/23 13:38:33;;;;;;;9.57;2.10;;;52.10;16.50;;;;;;7706005;23;20032;-75
2023/08/23 13:41:34;;;;;;;6.32;1.98;;;52.10;16.40;;;;;;7705970;23;20083;-75
2023/08/23 13:44:35;;;;;;;7.82;2.40;;;52.20;16.20;;;;;;7654086;23;20075;-77
2023/08/23 13:47:37;;;;;;;6.30;2.00;;;52.30;16.20;;;;;;7678913;23;20095;-74
2023/08/23 13:50:38;;;;;;;5.88;2.08;;;52.30;16.20;;;;;;7678926;23;20004;-75
2023/08/23 13:53:40;;;;;;;3.50;2.35;;;52.40;16.20;;;;;;7678988;23;20114;-75
2023/08/23 13:56:41;;;;;;;9.63;2.38;;;52.40;16.10;;;;;;7678602;23;20012;-75
2023/08/23 13:59:42;;;;;;;9.23;1.88;;;52.30;16.00;;;;;;7705649;23;20056;-75
2023/08/23 14:02:43;;;;;;;4.65;1.52;;;52.10;15.90;;;;;;7705510;23;20016;-75
2023/08/23 14:05:44;;;;;;;2.88;2.00;;;51.90;15.90;;;;;;7705580;23;20087;-75
2023/08/23 14:08:45;;;;;;;6.32;2.05;;;51.70;16.00;;;;;;7705844;23;20016;-76
2023/08/23 14:11:53;;;;;;;6.22;2.30;;;51.50;16.10;;;;;;7678830;23;20062;-75
2023/08/23 14:14:54;;;;;;;7.03;1.75;;;51.60;16.00;;;;;;7678995;23;20016;-75
2023/08/23 14:17:55;;;;;;;5.82;1.77;;;51.80;15.90;;;;;;7706075;23;20104;-75
2023/08/23 14:20:56;;;;;;;6.93;1.90;;;51.70;15.70;;;;;;7654047;23;20009;-75
2023/08/23 14:23:57;;;;;;;3.70;1.98;;;51.00;16.00;;;;;;7705211;23;20375;-76
2023/08/23 14:26:58;;;;;;;5.82;2.40;;;49.70;16.70;;;;;;7705901;23;20007;-75
2023/08/23 14:29:58;;;;;;;8.13;2.00;;;48.60;17.40;;;;;;7705653;23;20051;-75
2023/08/23 14:33:00;;;;;;;7.75;1.85;;;47.50;18.20;;;;;;7705643;23;20314;-74
2023/08/23 14:36:01;;;;;;;4.97;2.20;;;46.40;18.90;;;;;;7653673;23;20020;-75
2023/08/23 14:39:03;;;;;;;6.55;1.95;;;45.60;19.50;;;;;;7705761;23;20001;-77
2023/08/23 14:42:06;;;;;;;3.25;2.00;;;44.90;20.10;;;;;;7704821;23;20031;-75
2023/08/23 14:45:08;;;;;;;5.32;2.22;;;44.40;20.40;;;;;;7704891;23;20012;-75
2023/08/23 14:48:10;;;;;;;5.10;2.03;;;44.00;20.80;;;;;;7705032;23;20056;-74
2023/08/23 14:51:11;;;;;;;4.38;2.00;;;43.50;21.20;;;;;;7704726;23;20012;-74
2023/08/23 14:54:12;;;;;;;7.30;2.00;;;43.30;21.50;;;;;;7705063;23;20056;-76
2023/08/23 14:57:14;;;;;;;3.92;2.10;;;42.90;21.60;;;;;;7678470;23;20009;-75
2023/08/23 15:00:15;;;;;;;6.55;1.98;;;42.70;21.90;;;;;;7705704;23;20505;-75
2023/08/23 15:03:16;;;;;;;8.43;2.53;;;42.50;22.10;;;;;;7704975;23;20016;-76
2023/08/23 15:06:17;;;;;;;10.27;2.03;;;42.30;22.30;;;;;;7705260;23;20016;-75
2023/08/23 15:09:18;;;;;;;7.03;2.17;;;42.10;22.40;;;;;;7706975;23;20108;-74
2023/08/23 15:12:19;;;;;;;5.95;1.98;;;42.00;22.60;;;;;;7680955;23;20012;-74
2023/08/23 15:15:20;;;;;;;7.03;2.30;;;42.00;22.70;;;;;;7707834;23;20090;-75
2023/08/23 15:18:21;;;;;;;20.83;2.75;;;41.90;22.70;;;;;;7707593;23;20082;-74
2023/08/23 15:21:22;;;;;;;7.18;2.20;;;41.90;22.80;;;;;;7681080;23;20009;-74
2023/08/23 15:24:23;;;;;;;4.60;2.15;;;41.80;22.80;;;;;;7708516;23;20012;-74
2023/08/23 15:27:24;;;;;;;13.75;2.28;;;41.80;22.90;;;;;;7682545;23;20088;-74
2023/08/23 15:30:25;;;;;;;15.25;2.05;;;41.80;23.00;;;;;;7682997;23;20024;-74
2023/08/23 15:33:26;;;;;;;10.48;2.00;;;41.80;22.90;;;;;;7707959;23;20008;-75
2023/08/23 15:36:27;;;;;;;14.27;2.28;;;41.80;22.90;;;;;;7681157;23;20016;-75
2023/08/23 15:39:29;;;;;;;13.57;2.53;;;41.80;22.80;;;;;;7708265;23;20015;-74
2023/08/23 15:42:30;;;;;;;4.18;2.00;;;41.90;22.70;;;;;;7681080;23;20013;-76
2023/08/23 15:45:30;;;;;;;8.20;2.58;;;42.00;22.60;;;;;;7680887;23;20107;-77